sensor_id;sensor_type;location;lat;lon;timestamp;temperature;humidity
52731;DHT22;38624;53.242;6.974;2023-04-02T00:00:16;3.40;99.90
52731;DHT22;38624;53.242;6.974;2023-04-02T00:02:59;3.40;99.90
52731;DHT22;38624;53.242;6.974;2023-04-02T00:08:03;3.30;99.90
52731;DHT22;38624;53.242;6.974;2023-04-02T00:10:37;3.90;99.90
52731;DHT22;38624;53.242;6.974;2023-04-02T00:13:16;3.50;99.90
52731;DHT22;38624;53.242;6.974;2023-04-02T00:15:46;3.20;99.90
52731;DHT22;38624;53.242;6.974;2023-04-02T00:18:18;3.30;99.90
52731;DHT22;38624;53.242;6.974;2023-04-02T00:20:52;3.00;99.90
52731;DHT22;38624;53.242;6.974;2023-04-02T00:23:18;3.20;99.90
52731;DHT22;38624;53.242;6.974;2023-04-02T00:25:45;2.90;99.90
52731;DHT22;38624;53.242;6.974;2023-04-02T00:28:20;3.50;99.90
52731;DHT22;38624;53.242;6.974;2023-04-02T00:33:14;2.80;99.90
52731;DHT22;38624;53.242;6.974;2023-04-02T00:35:41;2.80;99.90
52731;DHT22;38624;53.242;6.974;2023-04-02T00:38:19;2.90;99.90
52731;DHT22;38624;53.242;6.974;2023-04-02T00:40:46;2.70;99.90
52731;DHT22;38624;53.242;6.974;2023-04-02T00:43:13;2.70;99.90
52731;DHT22;38624;53.242;6.974;2023-04-02T00:45:42;2.80;99.90
52731;DHT22;38624;53.242;6.974;2023-04-02T00:48:57;3.00;99.90
52731;DHT22;38624;53.242;6.974;2023-04-02T00:51:35;3.30;99.90
52731;DHT22;38624;53.242;6.974;2023-04-02T00:54:04;2.50;99.90
52731;DHT22;38624;53.242;6.974;2023-04-02T00:56:36;2.50;99.90
52731;DHT22;38624;53.242;6.974;2023-04-02T00:59:03;3.80;99.90
52731;DHT22;38624;53.242;6.974;2023-04-02T01:01:35;3.90;99.90
52731;DHT22;38624;53.242;6.974;2023-04-02T01:04:03;2.40;99.90
52731;DHT22;38624;53.242;6.974;2023-04-02T01:06:35;2.40;99.90
52731;DHT22;38624;53.242;6.974;2023-04-02T01:14:36;2.40;99.90
52731;DHT22;38624;53.242;6.974;2023-04-02T01:22:49;2.10;99.90
52731;DHT22;38624;53.242;6.974;2023-04-02T01:25:20;2.70;99.90
52731;DHT22;38624;53.242;6.974;2023-04-02T01:27:54;2.10;99.90
52731;DHT22;38624;53.242;6.974;2023-04-02T01:30:22;2.00;99.90
52731;DHT22;38624;53.242;6.974;2023-04-02T01:32:48;2.00;99.90
52731;DHT22;38624;53.242;6.974;2023-04-02T01:35:15;2.00;99.90
52731;DHT22;38624;53.242;6.974;2023-04-02T01:38:02;2.00;99.90
52731;DHT22;38624;53.242;6.974;2023-04-02T01:40:37;1.90;99.90
52731;DHT22;38624;53.242;6.974;2023-04-02T01:43:33;2.00;99.90
52731;DHT22;38624;53.242;6.974;2023-04-02T01:48:52;1.90;99.90
52731;DHT22;38624;53.242;6.974;2023-04-02T01:51:30;1.80;99.90
52731;DHT22;38624;53.242;6.974;2023-04-02T01:54:03;2.70;99.90
52731;DHT22;38624;53.242;6.974;2023-04-02T01:56:29;1.70;99.90
52731;DHT22;38624;53.242;6.974;2023-04-02T01:58:56;1.70;99.90
52731;DHT22;38624;53.242;6.974;2023-04-02T02:01:27;1.70;99.90
52731;DHT22;38624;53.242;6.974;2023-04-02T02:03:55;1.60;99.90
52731;DHT22;38624;53.242;6.974;2023-04-02T02:06:21;2.90;99.90
52731;DHT22;38624;53.242;6.974;2023-04-02T02:11:19;1.50;99.90
52731;DHT22;38624;53.242;6.974;2023-04-02T02:14:39;1.50;99.90
52731;DHT22;38624;53.242;6.974;2023-04-02T02:16:59;1.40;99.90
52731;DHT22;38624;53.242;6.974;2023-04-02T02:19:38;1.40;99.90
52731;DHT22;38624;53.242;6.974;2023-04-02T02:24:39;1.40;99.90
52731;DHT22;38624;53.242;6.974;2023-04-02T02:29:52;1.30;99.90
52731;DHT22;38624;53.242;6.974;2023-04-02T02:32:22;1.20;99.90
52731;DHT22;38624;53.242;6.974;2023-04-02T02:34:57;1.10;99.90
52731;DHT22;38624;53.242;6.974;2023-04-02T02:37:31;1.00;99.90
52731;DHT22;38624;53.242;6.974;2023-04-02T02:40:00;2.60;99.90
52731;DHT22;38624;53.242;6.974;2023-04-02T02:42:35;1.20;99.90
52731;DHT22;38624;53.242;6.974;2023-04-02T02:45:04;1.30;99.90
52731;DHT22;38624;53.242;6.974;2023-04-02T02:47:33;1.20;99.90
52731;DHT22;38624;53.242;6.974;2023-04-02T02:50:06;1.40;99.90
52731;DHT22;38624;53.242;6.974;2023-04-02T02:52:37;1.10;99.90
52731;DHT22;38624;53.242;6.974;2023-04-02T02:55:12;1.00;99.90
52731;DHT22;38624;53.242;6.974;2023-04-02T02:57:53;1.00;99.90
52731;DHT22;38624;53.242;6.974;2023-04-02T03:00:20;1.40;99.90
52731;DHT22;38624;53.242;6.974;2023-04-02T03:02:49;1.00;99.90
52731;DHT22;38624;53.242;6.974;2023-04-02T03:05:22;2.50;99.90
52731;DHT22;38624;53.242;6.974;2023-04-02T03:07:50;1.00;99.90
52731;DHT22;38624;53.242;6.974;2023-04-02T03:13:08;1.00;99.90
52731;DHT22;38624;53.242;6.974;2023-04-02T03:18:45;1.00;99.90
52731;DHT22;38624;53.242;6.974;2023-04-02T03:21:39;1.50;99.90
52731;DHT22;38624;53.242;6.974;2023-04-02T03:24:40;2.20;99.90
52731;DHT22;38624;53.242;6.974;2023-04-02T03:27:14;0.90;99.90
52731;DHT22;38624;53.242;6.974;2023-04-02T03:29:46;2.00;99.90
52731;DHT22;38624;53.242;6.974;2023-04-02T03:32:21;1.60;99.90
52731;DHT22;38624;53.242;6.974;2023-04-02T03:34:52;1.10;99.90
52731;DHT22;38624;53.242;6.974;2023-04-02T03:37:45;2.00;99.90
52731;DHT22;38624;53.242;6.974;2023-04-02T03:40:23;0.80;99.90
52731;DHT22;38624;53.242;6.974;2023-04-02T03:43:03;0.80;99.90
52731;DHT22;38624;53.242;6.974;2023-04-02T03:45:46;2.10;99.90
52731;DHT22;38624;53.242;6.974;2023-04-02T03:48:43;0.80;99.90
52731;DHT22;38624;53.242;6.974;2023-04-02T03:53:54;2.30;99.90
52731;DHT22;38624;53.242;6.974;2023-04-02T03:56:41;2.20;99.90
52731;DHT22;38624;53.242;6.974;2023-04-02T03:59:11;0.90;99.90
52731;DHT22;38624;53.242;6.974;2023-04-02T04:01:47;0.90;99.90
52731;DHT22;38624;53.242;6.974;2023-04-02T04:04:17;0.90;99.90
52731;DHT22;38624;53.242;6.974;2023-04-02T04:06:45;0.90;99.90
52731;DHT22;38624;53.242;6.974;2023-04-02T04:09:42;0.90;99.90
52731;DHT22;38624;53.242;6.974;2023-04-02T04:14:59;0.90;99.90
52731;DHT22;38624;53.242;6.974;2023-04-02T04:20:08;0.90;99.90
52731;DHT22;38624;53.242;6.974;2023-04-02T04:22:39;2.20;99.90
52731;DHT22;38624;53.242;6.974;2023-04-02T04:25:16;1.10;99.90
52731;DHT22;38624;53.242;6.974;2023-04-02T04:28:12;0.80;99.90
52731;DHT22;38624;53.242;6.974;2023-04-02T04:30:45;0.80;99.90
52731;DHT22;38624;53.242;6.974;2023-04-02T04:33:42;1.40;99.90
52731;DHT22;38624;53.242;6.974;2023-04-02T04:36:26;0.80;99.90
52731;DHT22;38624;53.242;6.974;2023-04-02T04:38:56;1.70;99.90
52731;DHT22;38624;53.242;6.974;2023-04-02T04:41:35;1.50;99.90
52731;DHT22;38624;53.242;6.974;2023-04-02T04:44:14;0.80;99.90
52731;DHT22;38624;53.242;6.974;2023-04-02T04:49:45;1.90;99.90
52731;DHT22;38624;53.242;6.974;2023-04-02T04:54:40;0.90;99.90
52731;DHT22;38624;53.242;6.974;2023-04-02T04:57:36;0.80;99.90
52731;DHT22;38624;53.242;6.974;2023-04-02T05:02:53;0.90;99.90
52731;DHT22;38624;53.242;6.974;2023-04-02T05:05:28;0.90;99.90
52731;DHT22;38624;53.242;6.974;2023-04-02T05:08:03;0.80;99.90
52731;DHT22;38624;53.242;6.974;2023-04-02T05:10:49;1.20;99.90
52731;DHT22;38624;53.242;6.974;2023-04-02T05:13:31;0.80;99.90
52731;DHT22;38624;53.242;6.974;2023-04-02T05:18:47;0.80;99.90
52731;DHT22;38624;53.242;6.974;2023-04-02T05:22:01;0.80;99.90
52731;DHT22;38624;53.242;6.974;2023-04-02T05:24:32;0.90;99.90
52731;DHT22;38624;53.242;6.974;2023-04-02T05:27:48;0.90;99.90
52731;DHT22;38624;53.242;6.974;2023-04-02T05:32:35;0.90;99.90
52731;DHT22;38624;53.242;6.974;2023-04-02T05:35:05;1.10;99.90
52731;DHT22;38624;53.242;6.974;2023-04-02T05:37:32;0.90;99.90
52731;DHT22;38624;53.242;6.974;2023-04-02T05:40:09;0.90;99.90
52731;DHT22;38624;53.242;6.974;2023-04-02T05:42:39;1.00;99.90
52731;DHT22;38624;53.242;6.974;2023-04-02T05:45:22;2.20;99.90
52731;DHT22;38624;53.242;6.974;2023-04-02T05:47:52;1.10;99.90
52731;DHT22;38624;53.242;6.974;2023-04-02T05:50:35;1.20;99.90
52731;DHT22;38624;53.242;6.974;2023-04-02T05:58:36;1.60;99.90
52731;DHT22;38624;53.242;6.974;2023-04-02T06:06:20;2.00;99.90
52731;DHT22;38624;53.242;6.974;2023-04-02T06:09:16;2.10;99.90
52731;DHT22;38624;53.242;6.974;2023-04-02T06:11:48;3.40;99.90
52731;DHT22;38624;53.242;6.974;2023-04-02T06:14:15;2.20;99.90
52731;DHT22;38624;53.242;6.974;2023-04-02T06:16:43;2.30;99.90
52731;DHT22;38624;53.242;6.974;2023-04-02T06:19:24;3.30;99.90
52731;DHT22;38624;53.242;6.974;2023-04-02T06:21:56;4.10;99.90
52731;DHT22;38624;53.242;6.974;2023-04-02T06:24:24;4.00;99.90
52731;DHT22;38624;53.242;6.974;2023-04-02T06:27:00;3.30;99.90
52731;DHT22;38624;53.242;6.974;2023-04-02T06:29:27;2.60;99.90
52731;DHT22;38624;53.242;6.974;2023-04-02T06:31:59;2.70;99.90
52731;DHT22;38624;53.242;6.974;2023-04-02T06:34:28;2.70;99.90
52731;DHT22;38624;53.242;6.974;2023-04-02T06:39:44;2.90;99.90
52731;DHT22;38624;53.242;6.974;2023-04-02T06:42:17;3.00;99.90
52731;DHT22;38624;53.242;6.974;2023-04-02T06:44:43;3.60;99.90
52731;DHT22;38624;53.242;6.974;2023-04-02T06:49:48;3.90;99.90
52731;DHT22;38624;53.242;6.974;2023-04-02T06:52:39;3.10;99.90
52731;DHT22;38624;53.242;6.974;2023-04-02T06:57:56;3.00;99.90
52731;DHT22;38624;53.242;6.974;2023-04-02T07:03:07;3.30;99.90
52731;DHT22;38624;53.242;6.974;2023-04-02T07:05:37;3.40;99.90
52731;DHT22;38624;53.242;6.974;2023-04-02T07:08:03;3.50;99.90
52731;DHT22;38624;53.242;6.974;2023-04-02T07:10:29;3.60;99.90
52731;DHT22;38624;53.242;6.974;2023-04-02T07:12:55;3.50;99.90
52731;DHT22;38624;53.242;6.974;2023-04-02T07:15:20;4.50;99.90
52731;DHT22;38624;53.242;6.974;2023-04-02T07:17:48;3.70;99.90
52731;DHT22;38624;53.242;6.974;2023-04-02T07:20:25;3.80;99.90
52731;DHT22;38624;53.242;6.974;2023-04-02T07:22:52;3.90;99.90
52731;DHT22;38624;53.242;6.974;2023-04-02T07:25:17;4.00;99.90
52731;DHT22;38624;53.242;6.974;2023-04-02T07:27:43;4.20;99.90
52731;DHT22;38624;53.242;6.974;2023-04-02T07:30:09;4.30;99.90
52731;DHT22;38624;53.242;6.974;2023-04-02T07:32:35;4.50;99.90
52731;DHT22;38624;53.242;6.974;2023-04-02T07:35:01;4.50;99.90
52731;DHT22;38624;53.242;6.974;2023-04-02T07:37:27;5.10;99.90
52731;DHT22;38624;53.242;6.974;2023-04-02T07:39:53;4.60;99.90
52731;DHT22;38624;53.242;6.974;2023-04-02T07:42:19;4.70;99.90
52731;DHT22;38624;53.242;6.974;2023-04-02T07:44:44;4.90;99.90
52731;DHT22;38624;53.242;6.974;2023-04-02T07:47:10;4.80;99.90
52731;DHT22;38624;53.242;6.974;2023-04-02T07:49:36;4.80;99.90
52731;DHT22;38624;53.242;6.974;2023-04-02T07:52:01;4.90;99.90
52731;DHT22;38624;53.242;6.974;2023-04-02T07:54:27;5.00;99.90
52731;DHT22;38624;53.242;6.974;2023-04-02T07:56:54;5.20;99.90
52731;DHT22;38624;53.242;6.974;2023-04-02T07:59:20;5.00;99.90
52731;DHT22;38624;53.242;6.974;2023-04-02T08:01:46;5.00;99.90
52731;DHT22;38624;53.242;6.974;2023-04-02T08:04:20;5.10;99.90
52731;DHT22;38624;53.242;6.974;2023-04-02T08:06:47;5.80;99.90
52731;DHT22;38624;53.242;6.974;2023-04-02T08:09:14;5.00;99.90
52731;DHT22;38624;53.242;6.974;2023-04-02T08:11:40;4.90;99.90
52731;DHT22;38624;53.242;6.974;2023-04-02T08:14:07;5.40;99.90
52731;DHT22;38624;53.242;6.974;2023-04-02T08:19:28;4.80;99.90
52731;DHT22;38624;53.242;6.974;2023-04-02T08:21:54;4.90;99.90
52731;DHT22;38624;53.242;6.974;2023-04-02T08:24:21;5.90;99.90
52731;DHT22;38624;53.242;6.974;2023-04-02T08:26:48;5.50;99.90
52731;DHT22;38624;53.242;6.974;2023-04-02T08:29:14;5.10;99.90
52731;DHT22;38624;53.242;6.974;2023-04-02T08:31:39;5.10;99.90
52731;DHT22;38624;53.242;6.974;2023-04-02T08:34:06;5.00;99.90
52731;DHT22;38624;53.242;6.974;2023-04-02T08:36:34;4.90;99.90
52731;DHT22;38624;53.242;6.974;2023-04-02T08:39:01;4.90;99.90
52731;DHT22;38624;53.242;6.974;2023-04-02T08:41:27;5.00;99.90
52731;DHT22;38624;53.242;6.974;2023-04-02T08:46:47;5.10;99.90
52731;DHT22;38624;53.242;6.974;2023-04-02T08:49:17;5.20;99.90
52731;DHT22;38624;53.242;6.974;2023-04-02T08:51:44;5.80;99.90
52731;DHT22;38624;53.242;6.974;2023-04-02T08:54:20;5.50;99.90
52731;DHT22;38624;53.242;6.974;2023-04-02T08:59:43;5.60;99.90
52731;DHT22;38624;53.242;6.974;2023-04-02T09:02:28;5.70;99.90
52731;DHT22;38624;53.242;6.974;2023-04-02T09:04:56;5.70;99.90
52731;DHT22;38624;53.242;6.974;2023-04-02T09:07:23;5.70;99.90
52731;DHT22;38624;53.242;6.974;2023-04-02T09:09:49;6.10;99.90
52731;DHT22;38624;53.242;6.974;2023-04-02T09:12:20;5.80;99.90
52731;DHT22;38624;53.242;6.974;2023-04-02T09:17:24;5.90;99.90
52731;DHT22;38624;53.242;6.974;2023-04-02T09:20:35;6.20;99.90
52731;DHT22;38624;53.242;6.974;2023-04-02T09:22:54;5.90;99.90
52731;DHT22;38624;53.242;6.974;2023-04-02T09:25:26;5.90;99.90
52731;DHT22;38624;53.242;6.974;2023-04-02T09:27:54;5.90;99.90
52731;DHT22;38624;53.242;6.974;2023-04-02T09:30:51;6.00;99.90
52731;DHT22;38624;53.242;6.974;2023-04-02T09:33:22;6.10;99.90
52731;DHT22;38624;53.242;6.974;2023-04-02T09:36:04;6.00;99.90
52731;DHT22;38624;53.242;6.974;2023-04-02T09:38:30;6.10;99.90
52731;DHT22;38624;53.242;6.974;2023-04-02T09:48:30;6.30;99.90
52731;DHT22;38624;53.242;6.974;2023-04-02T09:51:13;6.30;99.90
52731;DHT22;38624;53.242;6.974;2023-04-02T09:53:48;6.30;99.90
52731;DHT22;38624;53.242;6.974;2023-04-02T09:56:19;6.40;99.90
52731;DHT22;38624;53.242;6.974;2023-04-02T09:59:13;6.50;99.90
52731;DHT22;38624;53.242;6.974;2023-04-02T10:01:42;6.50;99.90
52731;DHT22;38624;53.242;6.974;2023-04-02T10:07:29;6.60;99.90
52731;DHT22;38624;53.242;6.974;2023-04-02T10:10:00;6.60;99.90
52731;DHT22;38624;53.242;6.974;2023-04-02T10:12:29;6.70;99.90
52731;DHT22;38624;53.242;6.974;2023-04-02T10:14:59;6.70;99.90
52731;DHT22;38624;53.242;6.974;2023-04-02T10:17:29;6.80;99.90
52731;DHT22;38624;53.242;6.974;2023-04-02T10:20:04;6.90;99.90
52731;DHT22;38624;53.242;6.974;2023-04-02T10:22:36;7.00;99.90
52731;DHT22;38624;53.242;6.974;2023-04-02T10:25:15;6.80;99.90
52731;DHT22;38624;53.242;6.974;2023-04-02T10:28:00;7.20;99.90
52731;DHT22;38624;53.242;6.974;2023-04-02T10:33:37;7.20;99.90
52731;DHT22;38624;53.242;6.974;2023-04-02T10:36:19;7.20;99.90
52731;DHT22;38624;53.242;6.974;2023-04-02T10:38:54;7.20;99.90
52731;DHT22;38624;53.242;6.974;2023-04-02T10:46:52;7.40;99.90
52731;DHT22;38624;53.242;6.974;2023-04-02T10:52:17;7.80;99.90
52731;DHT22;38624;53.242;6.974;2023-04-02T10:54:53;11.10;99.90
52731;DHT22;38624;53.242;6.974;2023-04-02T10:57:39;13.40;99.90
52731;DHT22;38624;53.242;6.974;2023-04-02T11:05:31;18.10;99.90
52731;DHT22;38624;53.242;6.974;2023-04-02T11:08:03;20.00;99.90
52731;DHT22;38624;53.242;6.974;2023-04-02T11:10:33;20.90;99.90
52731;DHT22;38624;53.242;6.974;2023-04-02T11:13:17;21.90;99.90
52731;DHT22;38624;53.242;6.974;2023-04-02T11:15:45;22.40;99.90
52731;DHT22;38624;53.242;6.974;2023-04-02T11:20:57;23.00;99.90
52731;DHT22;38624;53.242;6.974;2023-04-02T11:23:27;22.30;98.80
52731;DHT22;38624;53.242;6.974;2023-04-02T11:26:30;22.00;99.90
52731;DHT22;38624;53.242;6.974;2023-04-02T11:29:27;23.10;99.90
52731;DHT22;38624;53.242;6.974;2023-04-02T11:37:40;23.90;97.40
52731;DHT22;38624;53.242;6.974;2023-04-02T11:42:43;23.10;96.40
52731;DHT22;38624;53.242;6.974;2023-04-02T11:50:44;23.30;95.70
52731;DHT22;38624;53.242;6.974;2023-04-02T12:09:23;26.40;90.60
52731;DHT22;38624;53.242;6.974;2023-04-02T12:11:51;27.20;90.40
52731;DHT22;38624;53.242;6.974;2023-04-02T12:17:12;29.10;85.20
52731;DHT22;38624;53.242;6.974;2023-04-02T12:19:38;28.30;79.70
52731;DHT22;38624;53.242;6.974;2023-04-02T12:22:04;27.80;78.60
52731;DHT22;38624;53.242;6.974;2023-04-02T12:24:30;26.70;78.70
52731;DHT22;38624;53.242;6.974;2023-04-02T12:27:26;27.50;77.80
52731;DHT22;38624;53.242;6.974;2023-04-02T12:29:54;28.00;72.20
52731;DHT22;38624;53.242;6.974;2023-04-02T12:32:27;26.60;72.20
52731;DHT22;38624;53.242;6.974;2023-04-02T12:34:55;25.70;68.70
52731;DHT22;38624;53.242;6.974;2023-04-02T12:37:26;26.50;72.40
52731;DHT22;38624;53.242;6.974;2023-04-02T12:39:55;27.50;73.10
52731;DHT22;38624;53.242;6.974;2023-04-02T12:42:32;27.20;72.40
52731;DHT22;38624;53.242;6.974;2023-04-02T12:44:59;28.00;67.50
52731;DHT22;38624;53.242;6.974;2023-04-02T12:47:26;28.20;70.90
52731;DHT22;38624;53.242;6.974;2023-04-02T12:49:53;29.30;71.40
52731;DHT22;38624;53.242;6.974;2023-04-02T12:52:22;29.40;70.10
52731;DHT22;38624;53.242;6.974;2023-04-02T12:59:53;30.80;62.60
52731;DHT22;38624;53.242;6.974;2023-04-02T13:02:28;30.40;63.90
52731;DHT22;38624;53.242;6.974;2023-04-02T13:04:56;30.70;62.20
52731;DHT22;38624;53.242;6.974;2023-04-02T13:07:27;30.60;61.20
52731;DHT22;38624;53.242;6.974;2023-04-02T13:09:56;30.60;61.10
52731;DHT22;38624;53.242;6.974;2023-04-02T13:14:58;30.60;60.10
52731;DHT22;38624;53.242;6.974;2023-04-02T13:20:32;30.10;58.40
52731;DHT22;38624;53.242;6.974;2023-04-02T13:23:00;30.40;56.60
52731;DHT22;38624;53.242;6.974;2023-04-02T13:25:29;30.00;55.90
52731;DHT22;38624;53.242;6.974;2023-04-02T13:27:55;30.10;56.10
52731;DHT22;38624;53.242;6.974;2023-04-02T13:30:23;30.50;56.80
52731;DHT22;38624;53.242;6.974;2023-04-02T13:32:49;30.20;56.30
52731;DHT22;38624;53.242;6.974;2023-04-02T13:35:15;30.20;56.50
52731;DHT22;38624;53.242;6.974;2023-04-02T13:37:41;29.90;56.10
52731;DHT22;38624;53.242;6.974;2023-04-02T13:40:12;29.90;55.10
52731;DHT22;38624;53.242;6.974;2023-04-02T13:42:38;29.60;54.90
52731;DHT22;38624;53.242;6.974;2023-04-02T13:45:30;29.60;55.50
52731;DHT22;38624;53.242;6.974;2023-04-02T13:47:53;28.60;53.80
52731;DHT22;38624;53.242;6.974;2023-04-02T13:50:23;28.50;53.20
52731;DHT22;38624;53.242;6.974;2023-04-02T13:52:53;28.50;52.90
52731;DHT22;38624;53.242;6.974;2023-04-02T13:55:23;28.70;52.30
52731;DHT22;38624;53.242;6.974;2023-04-02T13:57:50;28.60;53.40
52731;DHT22;38624;53.242;6.974;2023-04-02T14:00:16;29.00;54.40
52731;DHT22;38624;53.242;6.974;2023-04-02T14:02:46;29.40;53.60
52731;DHT22;38624;53.242;6.974;2023-04-02T14:36:14;26.70;50.90
52731;DHT22;38624;53.242;6.974;2023-04-02T14:44:10;25.40;52.40
52731;DHT22;38624;53.242;6.974;2023-04-02T14:46:37;25.20;52.30
52731;DHT22;38624;53.242;6.974;2023-04-02T14:49:38;25.20;53.80
52731;DHT22;38624;53.242;6.974;2023-04-02T14:52:11;25.10;52.00
52731;DHT22;38624;53.242;6.974;2023-04-02T14:54:45;25.10;51.40
52731;DHT22;38624;53.242;6.974;2023-04-02T14:57:24;24.40;50.30
52731;DHT22;38624;53.242;6.974;2023-04-02T15:00:25;24.70;54.00
52731;DHT22;38624;53.242;6.974;2023-04-02T15:05:41;25.80;52.10
52731;DHT22;38624;53.242;6.974;2023-04-02T15:08:27;25.80;50.10
52731;DHT22;38624;53.242;6.974;2023-04-02T15:10:55;26.10;48.90
52731;DHT22;38624;53.242;6.974;2023-04-02T15:13:36;26.00;52.20
52731;DHT22;38624;53.242;6.974;2023-04-02T15:16:23;26.10;50.20
52731;DHT22;38624;53.242;6.974;2023-04-02T15:18:55;25.70;51.20
52731;DHT22;38624;53.242;6.974;2023-04-02T15:26:30;26.10;49.90
52731;DHT22;38624;53.242;6.974;2023-04-02T15:31:43;26.30;49.80
52731;DHT22;38624;53.242;6.974;2023-04-02T15:34:22;26.30;50.10
52731;DHT22;38624;53.242;6.974;2023-04-02T15:37:24;25.70;46.90
52731;DHT22;38624;53.242;6.974;2023-04-02T15:39:57;26.20;51.60
52731;DHT22;38624;53.242;6.974;2023-04-02T15:42:32;26.60;51.80
52731;DHT22;38624;53.242;6.974;2023-04-02T15:45:21;26.10;49.20
52731;DHT22;38624;53.242;6.974;2023-04-02T15:50:57;25.70;49.00
52731;DHT22;38624;53.242;6.974;2023-04-02T15:53:45;25.80;48.80
52731;DHT22;38624;53.242;6.974;2023-04-02T15:59:07;25.80;49.30
52731;DHT22;38624;53.242;6.974;2023-04-02T16:01:55;25.40;50.50
52731;DHT22;38624;53.242;6.974;2023-04-02T16:05:02;25.30;48.50
52731;DHT22;38624;53.242;6.974;2023-04-02T16:10:27;24.70;49.70
52731;DHT22;38624;53.242;6.974;2023-04-02T16:12:56;24.40;52.50
52731;DHT22;38624;53.242;6.974;2023-04-02T16:15:26;24.40;52.10
52731;DHT22;38624;53.242;6.974;2023-04-02T16:19:04;24.30;50.90
52731;DHT22;38624;53.242;6.974;2023-04-02T16:21:20;24.10;49.90
52731;DHT22;38624;53.242;6.974;2023-04-02T16:23:47;23.90;52.60
52731;DHT22;38624;53.242;6.974;2023-04-02T16:26:19;23.10;54.00
52731;DHT22;38624;53.242;6.974;2023-04-02T16:39:51;20.30;57.70
52731;DHT22;38624;53.242;6.974;2023-04-02T16:45:34;19.10;58.30
52731;DHT22;38624;53.242;6.974;2023-04-02T16:51:04;18.20;58.10
52731;DHT22;38624;53.242;6.974;2023-04-02T16:53:41;17.80;57.20
52731;DHT22;38624;53.242;6.974;2023-04-02T17:10:18;15.30;60.30
52731;DHT22;38624;53.242;6.974;2023-04-02T17:12:54;15.30;63.70
52731;DHT22;38624;53.242;6.974;2023-04-02T17:15:26;15.20;67.50
52731;DHT22;38624;53.242;6.974;2023-04-02T17:17:56;14.60;66.50
52731;DHT22;38624;53.242;6.974;2023-04-02T17:20:24;14.40;67.00
52731;DHT22;38624;53.242;6.974;2023-04-02T17:22:50;14.10;69.10
52731;DHT22;38624;53.242;6.974;2023-04-02T17:25:18;13.90;70.20
52731;DHT22;38624;53.242;6.974;2023-04-02T17:27:47;13.50;70.70
52731;DHT22;38624;53.242;6.974;2023-04-02T17:30:18;13.10;72.20
52731;DHT22;38624;53.242;6.974;2023-04-02T17:32:44;12.90;71.50
52731;DHT22;38624;53.242;6.974;2023-04-02T17:38:07;12.50;73.90
52731;DHT22;38624;53.242;6.974;2023-04-02T17:40:53;12.10;70.90
52731;DHT22;38624;53.242;6.974;2023-04-02T17:43:48;11.70;73.60
52731;DHT22;38624;53.242;6.974;2023-04-02T17:46:25;11.50;72.50
52731;DHT22;38624;53.242;6.974;2023-04-02T17:49:58;11.20;78.30
52731;DHT22;38624;53.242;6.974;2023-04-02T17:52:28;10.80;73.10
52731;DHT22;38624;53.242;6.974;2023-04-02T18:00:52;9.90;79.20
52731;DHT22;38624;53.242;6.974;2023-04-02T18:06:20;9.40;77.50
52731;DHT22;38624;53.242;6.974;2023-04-02T18:11:59;9.10;80.80
52731;DHT22;38624;53.242;6.974;2023-04-02T18:14:36;8.90;85.20
52731;DHT22;38624;53.242;6.974;2023-04-02T18:23:35;8.50;82.30
52731;DHT22;38624;53.242;6.974;2023-04-02T18:26:41;8.40;84.40
52731;DHT22;38624;53.242;6.974;2023-04-02T18:35:09;8.10;92.10
52731;DHT22;38624;53.242;6.974;2023-04-02T18:37:59;7.90;89.50
52731;DHT22;38624;53.242;6.974;2023-04-02T18:43:33;7.80;90.90
52731;DHT22;38624;53.242;6.974;2023-04-02T18:48:45;7.60;93.30
52731;DHT22;38624;53.242;6.974;2023-04-02T18:51:18;7.60;92.40
52731;DHT22;38624;53.242;6.974;2023-04-02T18:53:53;7.50;91.40
52731;DHT22;38624;53.242;6.974;2023-04-02T18:56:21;7.50;91.40
52731;DHT22;38624;53.242;6.974;2023-04-02T19:01:24;7.40;91.90
52731;DHT22;38624;53.242;6.974;2023-04-02T19:04:00;7.30;91.90
52731;DHT22;38624;53.242;6.974;2023-04-02T19:06:37;7.20;91.90
52731;DHT22;38624;53.242;6.974;2023-04-02T19:11:42;7.80;92.30
52731;DHT22;38624;53.242;6.974;2023-04-02T19:14:14;6.90;92.10
52731;DHT22;38624;53.242;6.974;2023-04-02T19:17:00;6.80;92.30
52731;DHT22;38624;53.242;6.974;2023-04-02T19:22:12;6.80;91.20
52731;DHT22;38624;53.242;6.974;2023-04-02T19:27:41;6.70;93.90
52731;DHT22;38624;53.242;6.974;2023-04-02T19:30:31;6.70;98.20
52731;DHT22;38624;53.242;6.974;2023-04-02T19:35:54;6.60;97.60
52731;DHT22;38624;53.242;6.974;2023-04-02T19:43:34;6.50;99.90
52731;DHT22;38624;53.242;6.974;2023-04-02T19:46:01;6.40;99.90
52731;DHT22;38624;53.242;6.974;2023-04-02T19:49:33;6.40;99.90
52731;DHT22;38624;53.242;6.974;2023-04-02T19:51:28;6.40;99.90
52731;DHT22;38624;53.242;6.974;2023-04-02T19:53:55;6.30;99.90
52731;DHT22;38624;53.242;6.974;2023-04-02T19:56:20;6.30;99.90
52731;DHT22;38624;53.242;6.974;2023-04-02T19:58:47;6.20;99.90
52731;DHT22;38624;53.242;6.974;2023-04-02T20:01:13;7.10;99.90
52731;DHT22;38624;53.242;6.974;2023-04-02T20:03:38;6.10;99.90
52731;DHT22;38624;53.242;6.974;2023-04-02T20:06:05;6.20;99.90
52731;DHT22;38624;53.242;6.974;2023-04-02T20:08:30;6.00;99.90
52731;DHT22;38624;53.242;6.974;2023-04-02T20:10:56;5.90;99.90
52731;DHT22;38624;53.242;6.974;2023-04-02T20:13:26;6.00;99.90
52731;DHT22;38624;53.242;6.974;2023-04-02T20:15:52;6.20;99.90
52731;DHT22;38624;53.242;6.974;2023-04-02T20:18:18;5.80;99.90
52731;DHT22;38624;53.242;6.974;2023-04-02T20:20:48;5.80;99.90
52731;DHT22;38624;53.242;6.974;2023-04-02T20:23:15;5.80;99.90
52731;DHT22;38624;53.242;6.974;2023-04-02T20:25:45;6.30;99.90
52731;DHT22;38624;53.242;6.974;2023-04-02T20:28:11;5.70;99.90
52731;DHT22;38624;53.242;6.974;2023-04-02T20:30:37;5.70;99.90
52731;DHT22;38624;53.242;6.974;2023-04-02T20:33:03;5.60;99.90
52731;DHT22;38624;53.242;6.974;2023-04-02T20:35:29;5.50;99.90
52731;DHT22;38624;53.242;6.974;2023-04-02T20:37:59;6.40;99.90
52731;DHT22;38624;53.242;6.974;2023-04-02T20:40:25;5.50;99.90
52731;DHT22;38624;53.242;6.974;2023-04-02T20:42:50;5.50;99.90
52731;DHT22;38624;53.242;6.974;2023-04-02T20:45:17;5.50;99.90
52731;DHT22;38624;53.242;6.974;2023-04-02T20:47:43;5.40;99.90
52731;DHT22;38624;53.242;6.974;2023-04-02T20:50:09;5.80;99.90
52731;DHT22;38624;53.242;6.974;2023-04-02T20:52:35;5.30;99.90
52731;DHT22;38624;53.242;6.974;2023-04-02T20:55:00;5.30;99.90
52731;DHT22;38624;53.242;6.974;2023-04-02T20:57:28;5.30;99.90
52731;DHT22;38624;53.242;6.974;2023-04-02T20:59:54;5.30;99.90
52731;DHT22;38624;53.242;6.974;2023-04-02T21:02:20;5.80;99.90
52731;DHT22;38624;53.242;6.974;2023-04-02T21:04:46;5.20;99.90
52731;DHT22;38624;53.242;6.974;2023-04-02T21:07:12;5.20;99.90
52731;DHT22;38624;53.242;6.974;2023-04-02T21:09:37;5.10;99.90
52731;DHT22;38624;53.242;6.974;2023-04-02T21:12:03;5.10;99.90
52731;DHT22;38624;53.242;6.974;2023-04-02T21:14:29;5.20;99.90
52731;DHT22;38624;53.242;6.974;2023-04-02T21:17:00;5.10;99.90
52731;DHT22;38624;53.242;6.974;2023-04-02T21:19:25;5.10;99.90